Blanc-Sablon, Canada
Current Conditions -  °F | °C
As of 12:00 AM on Sunday 26 Oct 2014 (Local Time) from CYBX Reporting Station
Overcast Overcast  
Wind Chill: 24°   Ceiling: 3000
Heat Index: 36°   Visibility: 15mi
Dew Point: 30°   Wind: 22mph
Humidity: 81%   Direction: 60°ENE
Pressure: 29.73"   Gusts: 29mph
Location:  51.43°N, 57.12°W
Report Text: CYBX 260300Z 06019G25KT 15SM OVC030 02/M01 A2973 RMK SC8SLP071
Loading
Personal Weather Stations






























Interactive Weather Map
Tropical Storm Tracking
New forecast layout! Learn more

10-Day Weather Forecast

Advertisements
Track Severe Weather on mobile